sensor_id;sensor_type;location;lat;lon;timestamp;P1;durP1;ratioP1;P2;durP2;ratioP2
15905;SDS011;8051;50.820;4.884;2023-03-19T00:00:35;17.07;;;15.77;;
15905;SDS011;8051;50.820;4.884;2023-03-19T00:03:02;18.17;;;16.80;;
15905;SDS011;8051;50.820;4.884;2023-03-19T00:05:31;16.53;;;15.30;;
15905;SDS011;8051;50.820;4.884;2023-03-19T00:07:59;17.10;;;15.80;;
15905;SDS011;8051;50.820;4.884;2023-03-19T00:10:26;14.80;;;13.63;;
15905;SDS011;8051;50.820;4.884;2023-03-19T00:12:53;15.77;;;14.67;;
15905;SDS011;8051;50.820;4.884;2023-03-19T00:15:21;15.23;;;14.33;;
15905;SDS011;8051;50.820;4.884;2023-03-19T00:17:48;14.40;;;13.50;;
15905;SDS011;8051;50.820;4.884;2023-03-19T00:20:16;15.20;;;14.10;;
15905;SDS011;8051;50.820;4.884;2023-03-19T00:22:46;14.77;;;13.67;;
15905;SDS011;8051;50.820;4.884;2023-03-19T00:25:13;15.00;;;13.93;;
15905;SDS011;8051;50.820;4.884;2023-03-19T00:27:41;15.53;;;14.33;;
15905;SDS011;8051;50.820;4.884;2023-03-19T00:30:09;15.23;;;14.13;;
15905;SDS011;8051;50.820;4.884;2023-03-19T00:32:38;14.17;;;13.27;;
15905;SDS011;8051;50.820;4.884;2023-03-19T00:35:05;15.10;;;13.97;;
15905;SDS011;8051;50.820;4.884;2023-03-19T00:37:34;14.67;;;13.63;;
15905;SDS011;8051;50.820;4.884;2023-03-19T00:40:03;14.97;;;13.80;;
15905;SDS011;8051;50.820;4.884;2023-03-19T00:42:32;13.80;;;13.00;;
15905;SDS011;8051;50.820;4.884;2023-03-19T00:44:59;14.90;;;13.67;;
15905;SDS011;8051;50.820;4.884;2023-03-19T00:47:26;15.23;;;13.83;;
15905;SDS011;8051;50.820;4.884;2023-03-19T00:49:54;14.30;;;13.43;;
15905;SDS011;8051;50.820;4.884;2023-03-19T00:52:21;14.97;;;13.80;;
15905;SDS011;8051;50.820;4.884;2023-03-19T00:54:48;15.67;;;14.50;;
15905;SDS011;8051;50.820;4.884;2023-03-19T00:57:18;15.27;;;14.10;;
15905;SDS011;8051;50.820;4.884;2023-03-19T00:59:45;15.53;;;14.33;;
15905;SDS011;8051;50.820;4.884;2023-03-19T01:02:13;15.37;;;14.27;;
15905;SDS011;8051;50.820;4.884;2023-03-19T01:04:41;15.40;;;14.20;;
15905;SDS011;8051;50.820;4.884;2023-03-19T01:07:09;15.40;;;14.30;;
15905;SDS011;8051;50.820;4.884;2023-03-19T01:09:36;15.27;;;14.23;;
15905;SDS011;8051;50.820;4.884;2023-03-19T01:12:04;15.03;;;13.83;;
15905;SDS011;8051;50.820;4.884;2023-03-19T01:14:33;14.73;;;13.63;;
15905;SDS011;8051;50.820;4.884;2023-03-19T01:17:01;15.80;;;14.60;;
15905;SDS011;8051;50.820;4.884;2023-03-19T01:19:28;15.37;;;14.10;;
15905;SDS011;8051;50.820;4.884;2023-03-19T01:21:56;15.97;;;14.87;;
15905;SDS011;8051;50.820;4.884;2023-03-19T01:24:27;15.27;;;14.17;;
15905;SDS011;8051;50.820;4.884;2023-03-19T01:26:55;15.03;;;13.93;;
15905;SDS011;8051;50.820;4.884;2023-03-19T01:29:22;15.00;;;14.00;;
15905;SDS011;8051;50.820;4.884;2023-03-19T01:31:51;14.70;;;13.80;;
15905;SDS011;8051;50.820;4.884;2023-03-19T01:34:19;14.67;;;13.77;;
15905;SDS011;8051;50.820;4.884;2023-03-19T01:36:47;15.27;;;14.27;;
15905;SDS011;8051;50.820;4.884;2023-03-19T01:39:15;15.63;;;14.70;;
15905;SDS011;8051;50.820;4.884;2023-03-19T01:41:42;15.30;;;14.40;;
15905;SDS011;8051;50.820;4.884;2023-03-19T01:44:22;15.40;;;14.50;;
15905;SDS011;8051;50.820;4.884;2023-03-19T01:46:52;16.83;;;15.60;;
15905;SDS011;8051;50.820;4.884;2023-03-19T01:49:20;15.90;;;14.87;;
15905;SDS011;8051;50.820;4.884;2023-03-19T01:51:50;16.30;;;15.30;;
15905;SDS011;8051;50.820;4.884;2023-03-19T01:54:21;16.90;;;15.73;;
15905;SDS011;8051;50.820;4.884;2023-03-19T01:56:50;16.83;;;15.53;;
15905;SDS011;8051;50.820;4.884;2023-03-19T01:59:22;16.50;;;15.40;;
15905;SDS011;8051;50.820;4.884;2023-03-19T02:01:56;16.87;;;15.87;;
15905;SDS011;8051;50.820;4.884;2023-03-19T02:04:26;17.10;;;16.00;;
15905;SDS011;8051;50.820;4.884;2023-03-19T02:06:56;17.43;;;16.10;;
15905;SDS011;8051;50.820;4.884;2023-03-19T02:09:26;17.57;;;16.47;;
15905;SDS011;8051;50.820;4.884;2023-03-19T02:11:55;17.83;;;16.50;;
15905;SDS011;8051;50.820;4.884;2023-03-19T02:14:23;17.53;;;16.27;;
15905;SDS011;8051;50.820;4.884;2023-03-19T02:16:50;20.23;;;18.83;;
15905;SDS011;8051;50.820;4.884;2023-03-19T02:19:21;20.60;;;18.90;;
15905;SDS011;8051;50.820;4.884;2023-03-19T02:21:57;20.63;;;19.07;;
15905;SDS011;8051;50.820;4.884;2023-03-19T02:24:27;21.50;;;20.00;;
15905;SDS011;8051;50.820;4.884;2023-03-19T02:27:01;19.60;;;18.00;;
15905;SDS011;8051;50.820;4.884;2023-03-19T02:29:29;20.67;;;19.10;;
15905;SDS011;8051;50.820;4.884;2023-03-19T02:31:56;20.33;;;18.77;;
15905;SDS011;8051;50.820;4.884;2023-03-19T02:34:37;20.53;;;18.83;;
15905;SDS011;8051;50.820;4.884;2023-03-19T02:37:08;20.30;;;18.83;;
15905;SDS011;8051;50.820;4.884;2023-03-19T02:39:45;19.97;;;18.47;;
15905;SDS011;8051;50.820;4.884;2023-03-19T02:42:17;20.53;;;18.87;;
15905;SDS011;8051;50.820;4.884;2023-03-19T02:44:47;20.97;;;19.10;;
15905;SDS011;8051;50.820;4.884;2023-03-19T02:47:15;19.33;;;17.77;;
15905;SDS011;8051;50.820;4.884;2023-03-19T02:49:42;18.03;;;16.63;;
15905;SDS011;8051;50.820;4.884;2023-03-19T02:52:10;19.87;;;18.17;;
15905;SDS011;8051;50.820;4.884;2023-03-19T02:54:38;20.20;;;18.60;;
15905;SDS011;8051;50.820;4.884;2023-03-19T02:57:05;20.13;;;18.33;;
15905;SDS011;8051;50.820;4.884;2023-03-19T02:59:34;19.33;;;17.63;;
15905;SDS011;8051;50.820;4.884;2023-03-19T03:02:03;20.53;;;18.60;;
15905;SDS011;8051;50.820;4.884;2023-03-19T03:04:31;20.57;;;18.77;;
15905;SDS011;8051;50.820;4.884;2023-03-19T03:07:01;20.37;;;18.57;;
15905;SDS011;8051;50.820;4.884;2023-03-19T03:09:28;21.83;;;19.90;;
15905;SDS011;8051;50.820;4.884;2023-03-19T03:11:56;21.27;;;19.37;;
15905;SDS011;8051;50.820;4.884;2023-03-19T03:14:23;22.23;;;20.13;;
15905;SDS011;8051;50.820;4.884;2023-03-19T03:16:52;23.83;;;21.57;;
15905;SDS011;8051;50.820;4.884;2023-03-19T03:19:21;25.47;;;23.13;;
15905;SDS011;8051;50.820;4.884;2023-03-19T03:21:48;25.17;;;23.03;;
15905;SDS011;8051;50.820;4.884;2023-03-19T03:24:16;24.47;;;22.23;;
15905;SDS011;8051;50.820;4.884;2023-03-19T03:26:44;25.63;;;23.23;;
15905;SDS011;8051;50.820;4.884;2023-03-19T03:29:11;25.40;;;23.10;;
15905;SDS011;8051;50.820;4.884;2023-03-19T03:31:39;24.27;;;22.07;;
15905;SDS011;8051;50.820;4.884;2023-03-19T03:34:07;24.13;;;21.83;;
15905;SDS011;8051;50.820;4.884;2023-03-19T03:36:35;24.40;;;22.10;;
15905;SDS011;8051;50.820;4.884;2023-03-19T03:39:02;27.30;;;23.50;;
15905;SDS011;8051;50.820;4.884;2023-03-19T03:41:30;24.97;;;22.67;;
15905;SDS011;8051;50.820;4.884;2023-03-19T03:43:58;23.93;;;21.63;;
15905;SDS011;8051;50.820;4.884;2023-03-19T03:46:26;25.23;;;22.70;;
15905;SDS011;8051;50.820;4.884;2023-03-19T03:48:53;24.80;;;22.40;;
15905;SDS011;8051;50.820;4.884;2023-03-19T03:51:22;23.60;;;21.33;;
15905;SDS011;8051;50.820;4.884;2023-03-19T03:53:50;23.40;;;21.00;;
15905;SDS011;8051;50.820;4.884;2023-03-19T03:56:17;24.60;;;22.27;;
15905;SDS011;8051;50.820;4.884;2023-03-19T03:58:45;24.30;;;21.63;;
15905;SDS011;8051;50.820;4.884;2023-03-19T04:01:12;25.13;;;22.63;;
15905;SDS011;8051;50.820;4.884;2023-03-19T04:03:41;26.93;;;24.17;;
15905;SDS011;8051;50.820;4.884;2023-03-19T04:06:09;26.20;;;23.40;;
15905;SDS011;8051;50.820;4.884;2023-03-19T04:08:42;24.27;;;21.67;;
15905;SDS011;8051;50.820;4.884;2023-03-19T04:11:09;25.10;;;22.70;;
15905;SDS011;8051;50.820;4.884;2023-03-19T04:13:37;26.23;;;23.23;;
15905;SDS011;8051;50.820;4.884;2023-03-19T04:16:05;25.37;;;22.90;;
15905;SDS011;8051;50.820;4.884;2023-03-19T04:18:33;24.30;;;21.93;;
15905;SDS011;8051;50.820;4.884;2023-03-19T04:21:01;25.90;;;22.43;;
15905;SDS011;8051;50.820;4.884;2023-03-19T04:23:29;25.97;;;22.43;;
15905;SDS011;8051;50.820;4.884;2023-03-19T04:25:58;27.30;;;24.43;;
15905;SDS011;8051;50.820;4.884;2023-03-19T04:28:26;25.27;;;22.80;;
15905;SDS011;8051;50.820;4.884;2023-03-19T04:30:57;26.80;;;23.20;;
15905;SDS011;8051;50.820;4.884;2023-03-19T04:33:25;26.03;;;23.27;;
15905;SDS011;8051;50.820;4.884;2023-03-19T04:35:54;23.77;;;21.53;;
15905;SDS011;8051;50.820;4.884;2023-03-19T04:38:22;27.57;;;24.70;;
15905;SDS011;8051;50.820;4.884;2023-03-19T04:40:51;26.53;;;23.80;;
15905;SDS011;8051;50.820;4.884;2023-03-19T04:43:21;27.17;;;24.33;;
15905;SDS011;8051;50.820;4.884;2023-03-19T04:45:49;25.33;;;22.67;;
15905;SDS011;8051;50.820;4.884;2023-03-19T04:48:17;25.80;;;23.00;;
15905;SDS011;8051;50.820;4.884;2023-03-19T04:50:44;26.67;;;23.90;;
15905;SDS011;8051;50.820;4.884;2023-03-19T04:53:16;25.27;;;22.57;;
15905;SDS011;8051;50.820;4.884;2023-03-19T04:55:44;26.80;;;24.03;;
15905;SDS011;8051;50.820;4.884;2023-03-19T04:58:12;27.73;;;24.83;;
15905;SDS011;8051;50.820;4.884;2023-03-19T05:00:41;25.97;;;23.47;;
15905;SDS011;8051;50.820;4.884;2023-03-19T05:03:11;26.30;;;23.70;;
15905;SDS011;8051;50.820;4.884;2023-03-19T05:05:38;28.70;;;24.87;;
15905;SDS011;8051;50.820;4.884;2023-03-19T05:08:06;27.27;;;24.23;;
15905;SDS011;8051;50.820;4.884;2023-03-19T05:10:34;26.27;;;23.50;;
15905;SDS011;8051;50.820;4.884;2023-03-19T05:13:02;27.70;;;24.63;;
15905;SDS011;8051;50.820;4.884;2023-03-19T05:15:29;25.87;;;23.27;;
15905;SDS011;8051;50.820;4.884;2023-03-19T05:17:58;26.07;;;23.47;;
15905;SDS011;8051;50.820;4.884;2023-03-19T05:20:26;24.97;;;22.53;;
15905;SDS011;8051;50.820;4.884;2023-03-19T05:22:53;28.30;;;23.63;;
15905;SDS011;8051;50.820;4.884;2023-03-19T05:25:21;25.00;;;22.50;;
15905;SDS011;8051;50.820;4.884;2023-03-19T05:27:48;23.70;;;21.00;;
15905;SDS011;8051;50.820;4.884;2023-03-19T05:30:16;23.93;;;21.33;;
15905;SDS011;8051;50.820;4.884;2023-03-19T05:32:43;23.93;;;20.77;;
15905;SDS011;8051;50.820;4.884;2023-03-19T05:35:12;22.30;;;20.00;;
15905;SDS011;8051;50.820;4.884;2023-03-19T05:37:41;23.30;;;20.90;;
15905;SDS011;8051;50.820;4.884;2023-03-19T05:40:09;22.03;;;19.83;;
15905;SDS011;8051;50.820;4.884;2023-03-19T05:42:37;22.83;;;20.67;;
15905;SDS011;8051;50.820;4.884;2023-03-19T05:45:05;22.73;;;20.53;;
15905;SDS011;8051;50.820;4.884;2023-03-19T05:47:33;22.57;;;20.27;;
15905;SDS011;8051;50.820;4.884;2023-03-19T05:50:01;24.30;;;20.63;;
15905;SDS011;8051;50.820;4.884;2023-03-19T05:52:30;20.80;;;18.70;;
15905;SDS011;8051;50.820;4.884;2023-03-19T05:54:58;20.40;;;18.30;;
15905;SDS011;8051;50.820;4.884;2023-03-19T05:57:25;19.80;;;17.80;;
15905;SDS011;8051;50.820;4.884;2023-03-19T05:59:53;21.13;;;19.10;;
15905;SDS011;8051;50.820;4.884;2023-03-19T06:02:20;21.13;;;19.03;;
15905;SDS011;8051;50.820;4.884;2023-03-19T06:04:48;19.60;;;17.70;;
15905;SDS011;8051;50.820;4.884;2023-03-19T06:07:15;20.13;;;18.13;;
15905;SDS011;8051;50.820;4.884;2023-03-19T06:09:44;20.20;;;18.17;;
15905;SDS011;8051;50.820;4.884;2023-03-19T06:12:12;20.00;;;18.00;;
15905;SDS011;8051;50.820;4.884;2023-03-19T06:14:40;21.50;;;19.00;;
15905;SDS011;8051;50.820;4.884;2023-03-19T06:17:08;21.53;;;18.20;;
15905;SDS011;8051;50.820;4.884;2023-03-19T06:19:35;20.37;;;18.43;;
15905;SDS011;8051;50.820;4.884;2023-03-19T06:22:03;21.87;;;19.53;;
15905;SDS011;8051;50.820;4.884;2023-03-19T06:24:30;22.87;;;19.00;;
15905;SDS011;8051;50.820;4.884;2023-03-19T06:26:59;24.97;;;19.43;;
15905;SDS011;8051;50.820;4.884;2023-03-19T06:29:27;21.37;;;18.87;;
15905;SDS011;8051;50.820;4.884;2023-03-19T06:31:54;21.53;;;19.37;;
15905;SDS011;8051;50.820;4.884;2023-03-19T06:34:22;21.53;;;19.37;;
15905;SDS011;8051;50.820;4.884;2023-03-19T06:36:49;22.53;;;20.43;;
15905;SDS011;8051;50.820;4.884;2023-03-19T06:39:18;22.47;;;20.27;;
15905;SDS011;8051;50.820;4.884;2023-03-19T06:41:45;21.47;;;19.40;;
15905;SDS011;8051;50.820;4.884;2023-03-19T06:44:14;23.57;;;21.27;;
15905;SDS011;8051;50.820;4.884;2023-03-19T06:46:42;22.27;;;20.30;;
15905;SDS011;8051;50.820;4.884;2023-03-19T06:49:10;22.00;;;19.97;;
15905;SDS011;8051;50.820;4.884;2023-03-19T06:51:37;24.50;;;22.20;;
15905;SDS011;8051;50.820;4.884;2023-03-19T06:54:05;27.27;;;24.37;;
15905;SDS011;8051;50.820;4.884;2023-03-19T06:56:33;32.93;;;28.00;;
15905;SDS011;8051;50.820;4.884;2023-03-19T06:59:00;31.07;;;27.40;;
15905;SDS011;8051;50.820;4.884;2023-03-19T07:01:29;35.23;;;30.27;;
15905;SDS011;8051;50.820;4.884;2023-03-19T07:03:56;37.93;;;31.10;;
15905;SDS011;8051;50.820;4.884;2023-03-19T07:06:24;36.73;;;30.37;;
15905;SDS011;8051;50.820;4.884;2023-03-19T07:08:51;39.20;;;32.57;;
15905;SDS011;8051;50.820;4.884;2023-03-19T07:11:19;37.87;;;32.03;;
15905;SDS011;8051;50.820;4.884;2023-03-19T07:13:46;34.37;;;30.30;;
15905;SDS011;8051;50.820;4.884;2023-03-19T07:16:14;32.37;;;29.00;;
15905;SDS011;8051;50.820;4.884;2023-03-19T07:18:42;30.67;;;27.43;;
15905;SDS011;8051;50.820;4.884;2023-03-19T07:21:10;28.63;;;25.70;;
15905;SDS011;8051;50.820;4.884;2023-03-19T07:23:37;29.20;;;26.40;;
15905;SDS011;8051;50.820;4.884;2023-03-19T07:26:05;28.27;;;25.60;;
15905;SDS011;8051;50.820;4.884;2023-03-19T07:28:33;28.80;;;25.97;;
15905;SDS011;8051;50.820;4.884;2023-03-19T07:31:00;28.97;;;26.37;;
15905;SDS011;8051;50.820;4.884;2023-03-19T07:33:28;28.33;;;25.87;;
15905;SDS011;8051;50.820;4.884;2023-03-19T07:35:56;27.03;;;24.57;;
15905;SDS011;8051;50.820;4.884;2023-03-19T07:38:24;27.60;;;25.20;;
15905;SDS011;8051;50.820;4.884;2023-03-19T07:40:53;28.23;;;25.63;;
15905;SDS011;8051;50.820;4.884;2023-03-19T07:43:20;27.57;;;24.87;;
15905;SDS011;8051;50.820;4.884;2023-03-19T07:45:48;28.97;;;26.57;;
15905;SDS011;8051;50.820;4.884;2023-03-19T07:48:15;28.37;;;25.97;;
15905;SDS011;8051;50.820;4.884;2023-03-19T07:50:43;27.97;;;25.67;;
15905;SDS011;8051;50.820;4.884;2023-03-19T07:53:12;28.03;;;25.57;;
15905;SDS011;8051;50.820;4.884;2023-03-19T07:55:39;27.70;;;25.10;;
15905;SDS011;8051;50.820;4.884;2023-03-19T07:58:07;27.77;;;25.43;;
15905;SDS011;8051;50.820;4.884;2023-03-19T08:00:34;27.00;;;24.77;;
15905;SDS011;8051;50.820;4.884;2023-03-19T08:03:01;26.03;;;23.77;;
15905;SDS011;8051;50.820;4.884;2023-03-19T08:05:29;25.23;;;22.63;;
15905;SDS011;8051;50.820;4.884;2023-03-19T08:07:57;24.20;;;22.30;;
15905;SDS011;8051;50.820;4.884;2023-03-19T08:10:26;25.80;;;23.50;;
15905;SDS011;8051;50.820;4.884;2023-03-19T08:12:54;24.43;;;22.13;;
15905;SDS011;8051;50.820;4.884;2023-03-19T08:15:21;24.27;;;22.40;;
15905;SDS011;8051;50.820;4.884;2023-03-19T08:17:55;23.70;;;21.80;;
15905;SDS011;8051;50.820;4.884;2023-03-19T08:20:23;25.00;;;22.70;;
15905;SDS011;8051;50.820;4.884;2023-03-19T08:22:51;22.97;;;21.00;;
15905;SDS011;8051;50.820;4.884;2023-03-19T08:25:18;21.90;;;19.93;;
15905;SDS011;8051;50.820;4.884;2023-03-19T08:27:47;22.73;;;20.90;;
15905;SDS011;8051;50.820;4.884;2023-03-19T08:30:15;24.00;;;21.90;;
15905;SDS011;8051;50.820;4.884;2023-03-19T08:32:43;22.83;;;20.73;;
15905;SDS011;8051;50.820;4.884;2023-03-19T08:35:11;22.43;;;20.40;;
15905;SDS011;8051;50.820;4.884;2023-03-19T08:37:38;22.00;;;20.00;;
15905;SDS011;8051;50.820;4.884;2023-03-19T08:40:06;21.70;;;19.90;;
15905;SDS011;8051;50.820;4.884;2023-03-19T08:42:35;20.83;;;19.30;;
15905;SDS011;8051;50.820;4.884;2023-03-19T08:45:08;22.17;;;20.17;;
15905;SDS011;8051;50.820;4.884;2023-03-19T08:47:37;21.20;;;19.60;;
15905;SDS011;8051;50.820;4.884;2023-03-19T08:50:05;23.13;;;21.33;;
15905;SDS011;8051;50.820;4.884;2023-03-19T08:52:33;23.00;;;20.83;;
15905;SDS011;8051;50.820;4.884;2023-03-19T08:55:01;21.13;;;19.53;;
15905;SDS011;8051;50.820;4.884;2023-03-19T08:57:28;22.70;;;21.00;;
15905;SDS011;8051;50.820;4.884;2023-03-19T08:59:56;21.87;;;20.27;;
15905;SDS011;8051;50.820;4.884;2023-03-19T09:02:26;20.93;;;19.13;;
15905;SDS011;8051;50.820;4.884;2023-03-19T09:04:53;21.70;;;19.83;;
15905;SDS011;8051;50.820;4.884;2023-03-19T09:07:21;20.93;;;19.33;;
15905;SDS011;8051;50.820;4.884;2023-03-19T09:09:48;22.97;;;21.03;;
15905;SDS011;8051;50.820;4.884;2023-03-19T09:12:17;21.73;;;19.97;;
15905;SDS011;8051;50.820;4.884;2023-03-19T09:14:45;21.67;;;19.60;;
15905;SDS011;8051;50.820;4.884;2023-03-19T09:17:12;19.90;;;18.40;;
15905;SDS011;8051;50.820;4.884;2023-03-19T09:19:41;20.97;;;19.27;;
15905;SDS011;8051;50.820;4.884;2023-03-19T09:22:09;18.90;;;17.77;;
15905;SDS011;8051;50.820;4.884;2023-03-19T09:24:36;20.10;;;18.80;;
15905;SDS011;8051;50.820;4.884;2023-03-19T09:27:04;19.97;;;18.40;;
15905;SDS011;8051;50.820;4.884;2023-03-19T09:29:31;21.00;;;19.37;;
15905;SDS011;8051;50.820;4.884;2023-03-19T09:31:59;21.00;;;19.47;;
15905;SDS011;8051;50.820;4.884;2023-03-19T09:34:26;18.70;;;17.23;;
15905;SDS011;8051;50.820;4.884;2023-03-19T09:36:55;19.77;;;18.23;;
15905;SDS011;8051;50.820;4.884;2023-03-19T09:39:22;20.53;;;18.90;;
15905;SDS011;8051;50.820;4.884;2023-03-19T09:41:56;20.27;;;18.63;;
15905;SDS011;8051;50.820;4.884;2023-03-19T09:44:36;19.27;;;17.73;;
15905;SDS011;8051;50.820;4.884;2023-03-19T09:47:09;19.33;;;17.63;;
15905;SDS011;8051;50.820;4.884;2023-03-19T09:49:50;18.53;;;17.10;;
15905;SDS011;8051;50.820;4.884;2023-03-19T09:52:23;20.10;;;18.30;;
15905;SDS011;8051;50.820;4.884;2023-03-19T09:55:09;20.10;;;18.30;;
15905;SDS011;8051;50.820;4.884;2023-03-19T09:57:51;20.43;;;18.87;;
15905;SDS011;8051;50.820;4.884;2023-03-19T10:00:21;19.43;;;17.70;;
15905;SDS011;8051;50.820;4.884;2023-03-19T10:02:53;20.30;;;18.60;;
15905;SDS011;8051;50.820;4.884;2023-03-19T10:05:26;19.27;;;17.67;;
15905;SDS011;8051;50.820;4.884;2023-03-19T10:11:12;17.10;;;15.77;;
15905;SDS011;8051;50.820;4.884;2023-03-19T10:13:52;16.47;;;15.27;;
15905;SDS011;8051;50.820;4.884;2023-03-19T10:16:28;15.50;;;14.10;;
15905;SDS011;8051;50.820;4.884;2023-03-19T10:18:57;19.00;;;17.50;;
15905;SDS011;8051;50.820;4.884;2023-03-19T10:21:27;17.93;;;16.50;;
15905;SDS011;8051;50.820;4.884;2023-03-19T10:24:01;19.60;;;17.77;;
15905;SDS011;8051;50.820;4.884;2023-03-19T10:26:33;19.33;;;17.60;;
15905;SDS011;8051;50.820;4.884;2023-03-19T10:29:05;19.60;;;18.13;;
15905;SDS011;8051;50.820;4.884;2023-03-19T10:31:39;18.47;;;16.97;;
15905;SDS011;8051;50.820;4.884;2023-03-19T10:34:13;20.23;;;18.63;;
15905;SDS011;8051;50.820;4.884;2023-03-19T10:37:00;20.30;;;18.23;;
15905;SDS011;8051;50.820;4.884;2023-03-19T10:39:34;18.57;;;17.07;;
15905;SDS011;8051;50.820;4.884;2023-03-19T10:42:06;18.90;;;17.07;;
15905;SDS011;8051;50.820;4.884;2023-03-19T10:44:46;18.47;;;17.17;;
15905;SDS011;8051;50.820;4.884;2023-03-19T10:47:16;17.43;;;16.23;;
15905;SDS011;8051;50.820;4.884;2023-03-19T10:49:46;19.73;;;18.20;;
15905;SDS011;8051;50.820;4.884;2023-03-19T10:52:20;20.13;;;18.20;;
15905;SDS011;8051;50.820;4.884;2023-03-19T10:54:55;18.50;;;17.10;;
15905;SDS011;8051;50.820;4.884;2023-03-19T10:57:28;18.33;;;16.93;;
15905;SDS011;8051;50.820;4.884;2023-03-19T10:59:59;16.80;;;15.70;;
15905;SDS011;8051;50.820;4.884;2023-03-19T11:02:29;18.50;;;17.20;;
15905;SDS011;8051;50.820;4.884;2023-03-19T11:05:07;18.03;;;16.73;;
15905;SDS011;8051;50.820;4.884;2023-03-19T11:07:56;18.47;;;16.90;;
15905;SDS011;8051;50.820;4.884;2023-03-19T11:10:27;17.33;;;16.13;;
15905;SDS011;8051;50.820;4.884;2023-03-19T11:12:57;17.23;;;16.23;;
15905;SDS011;8051;50.820;4.884;2023-03-19T11:15:27;19.03;;;17.47;;
15905;SDS011;8051;50.820;4.884;2023-03-19T11:18:00;18.60;;;17.23;;
15905;SDS011;8051;50.820;4.884;2023-03-19T11:20:34;18.80;;;17.40;;
15905;SDS011;8051;50.820;4.884;2023-03-19T11:23:05;18.00;;;16.47;;
15905;SDS011;8051;50.820;4.884;2023-03-19T11:25:45;20.70;;;19.27;;
15905;SDS011;8051;50.820;4.884;2023-03-19T11:28:16;19.83;;;18.43;;
15905;SDS011;8051;50.820;4.884;2023-03-19T11:30:47;21.53;;;19.30;;
15905;SDS011;8051;50.820;4.884;2023-03-19T11:33:24;21.83;;;20.00;;
15905;SDS011;8051;50.820;4.884;2023-03-19T11:36:10;21.93;;;20.20;;
15905;SDS011;8051;50.820;4.884;2023-03-19T11:38:45;22.30;;;20.43;;
15905;SDS011;8051;50.820;4.884;2023-03-19T11:41:26;22.43;;;20.17;;
15905;SDS011;8051;50.820;4.884;2023-03-19T11:44:01;21.00;;;19.43;;
15905;SDS011;8051;50.820;4.884;2023-03-19T11:46:34;22.00;;;20.40;;
15905;SDS011;8051;50.820;4.884;2023-03-19T11:49:09;20.00;;;18.63;;
15905;SDS011;8051;50.820;4.884;2023-03-19T11:51:55;20.07;;;18.60;;
15905;SDS011;8051;50.820;4.884;2023-03-19T11:54:31;19.37;;;17.67;;
15905;SDS011;8051;50.820;4.884;2023-03-19T11:57:09;19.47;;;18.07;;
15905;SDS011;8051;50.820;4.884;2023-03-19T11:59:47;18.47;;;17.27;;
15905;SDS011;8051;50.820;4.884;2023-03-19T12:05:23;19.33;;;17.97;;
15905;SDS011;8051;50.820;4.884;2023-03-19T12:08:05;18.70;;;17.23;;
15905;SDS011;8051;50.820;4.884;2023-03-19T12:10:47;17.73;;;16.53;;
15905;SDS011;8051;50.820;4.884;2023-03-19T12:13:35;18.60;;;17.10;;
15905;SDS011;8051;50.820;4.884;2023-03-19T12:16:11;19.37;;;18.10;;
15905;SDS011;8051;50.820;4.884;2023-03-19T12:18:48;18.97;;;17.30;;
15905;SDS011;8051;50.820;4.884;2023-03-19T12:21:27;18.50;;;17.30;;
15905;SDS011;8051;50.820;4.884;2023-03-19T12:24:04;18.97;;;17.53;;
15905;SDS011;8051;50.820;4.884;2023-03-19T12:26:46;16.70;;;15.50;;
15905;SDS011;8051;50.820;4.884;2023-03-19T12:29:27;17.00;;;15.60;;
15905;SDS011;8051;50.820;4.884;2023-03-19T12:32:05;19.47;;;17.93;;
15905;SDS011;8051;50.820;4.884;2023-03-19T12:34:44;19.00;;;17.70;;
15905;SDS011;8051;50.820;4.884;2023-03-19T12:37:16;21.33;;;19.13;;
15905;SDS011;8051;50.820;4.884;2023-03-19T12:39:51;19.80;;;18.30;;
15905;SDS011;8051;50.820;4.884;2023-03-19T12:42:33;21.20;;;19.07;;
15905;SDS011;8051;50.820;4.884;2023-03-19T12:45:10;21.07;;;19.47;;
15905;SDS011;8051;50.820;4.884;2023-03-19T12:47:45;21.80;;;19.80;;
15905;SDS011;8051;50.820;4.884;2023-03-19T12:50:14;20.43;;;18.70;;
15905;SDS011;8051;50.820;4.884;2023-03-19T12:52:45;24.27;;;22.23;;
15905;SDS011;8051;50.820;4.884;2023-03-19T12:55:17;22.90;;;20.83;;
15905;SDS011;8051;50.820;4.884;2023-03-19T12:57:48;25.27;;;23.10;;
15905;SDS011;8051;50.820;4.884;2023-03-19T13:00:23;26.27;;;24.20;;
15905;SDS011;8051;50.820;4.884;2023-03-19T13:02:56;23.07;;;21.10;;
15905;SDS011;8051;50.820;4.884;2023-03-19T13:05:31;23.67;;;21.63;;
15905;SDS011;8051;50.820;4.884;2023-03-19T13:08:06;22.83;;;21.00;;
15905;SDS011;8051;50.820;4.884;2023-03-19T13:10:41;22.37;;;20.73;;
15905;SDS011;8051;50.820;4.884;2023-03-19T13:13:13;22.27;;;20.73;;
15905;SDS011;8051;50.820;4.884;2023-03-19T13:15:53;22.87;;;20.53;;
15905;SDS011;8051;50.820;4.884;2023-03-19T13:18:28;23.97;;;22.10;;
15905;SDS011;8051;50.820;4.884;2023-03-19T13:21:08;22.07;;;20.27;;
15905;SDS011;8051;50.820;4.884;2023-03-19T13:23:43;21.33;;;19.73;;
15905;SDS011;8051;50.820;4.884;2023-03-19T13:26:13;21.93;;;19.90;;
15905;SDS011;8051;50.820;4.884;2023-03-19T13:28:58;22.13;;;20.13;;
15905;SDS011;8051;50.820;4.884;2023-03-19T13:31:31;22.03;;;20.30;;
15905;SDS011;8051;50.820;4.884;2023-03-19T13:34:01;23.77;;;21.97;;
15905;SDS011;8051;50.820;4.884;2023-03-19T13:36:30;23.00;;;21.00;;
15905;SDS011;8051;50.820;4.884;2023-03-19T13:39:03;24.27;;;22.17;;
15905;SDS011;8051;50.820;4.884;2023-03-19T13:44:40;23.97;;;21.90;;
15905;SDS011;8051;50.820;4.884;2023-03-19T13:53:20;22.07;;;20.47;;
15905;SDS011;8051;50.820;4.884;2023-03-19T13:55:58;23.03;;;21.30;;
15905;SDS011;8051;50.820;4.884;2023-03-19T13:58:28;22.13;;;20.50;;
15905;SDS011;8051;50.820;4.884;2023-03-19T14:04:05;21.90;;;20.30;;
15905;SDS011;8051;50.820;4.884;2023-03-19T14:06:46;22.53;;;20.80;;
15905;SDS011;8051;50.820;4.884;2023-03-19T14:12:11;22.23;;;20.60;;
15905;SDS011;8051;50.820;4.884;2023-03-19T14:14:50;22.73;;;20.87;;
15905;SDS011;8051;50.820;4.884;2023-03-19T14:17:22;22.87;;;21.10;;
15905;SDS011;8051;50.820;4.884;2023-03-19T14:19:53;22.57;;;21.07;;
15905;SDS011;8051;50.820;4.884;2023-03-19T14:22:22;22.97;;;21.27;;
15905;SDS011;8051;50.820;4.884;2023-03-19T14:25:12;22.20;;;20.70;;
15905;SDS011;8051;50.820;4.884;2023-03-19T14:27:46;23.80;;;21.87;;
15905;SDS011;8051;50.820;4.884;2023-03-19T14:30:17;23.13;;;21.50;;
15905;SDS011;8051;50.820;4.884;2023-03-19T14:32:52;23.37;;;21.67;;
15905;SDS011;8051;50.820;4.884;2023-03-19T14:35:24;23.10;;;21.27;;
15905;SDS011;8051;50.820;4.884;2023-03-19T14:37:52;23.23;;;21.63;;
15905;SDS011;8051;50.820;4.884;2023-03-19T14:40:21;25.07;;;23.13;;
15905;SDS011;8051;50.820;4.884;2023-03-19T14:42:59;24.20;;;22.23;;
15905;SDS011;8051;50.820;4.884;2023-03-19T14:45:34;25.50;;;23.63;;
15905;SDS011;8051;50.820;4.884;2023-03-19T14:48:14;23.40;;;21.60;;
15905;SDS011;8051;50.820;4.884;2023-03-19T14:53:45;22.33;;;20.53;;
15905;SDS011;8051;50.820;4.884;2023-03-19T14:56:18;23.13;;;21.20;;
15905;SDS011;8051;50.820;4.884;2023-03-19T14:58:49;22.97;;;21.47;;
15905;SDS011;8051;50.820;4.884;2023-03-19T15:01:18;24.87;;;23.13;;
15905;SDS011;8051;50.820;4.884;2023-03-19T15:03:50;23.20;;;21.63;;
15905;SDS011;8051;50.820;4.884;2023-03-19T15:06:22;27.17;;;24.93;;
15905;SDS011;8051;50.820;4.884;2023-03-19T15:08:49;26.87;;;24.87;;
15905;SDS011;8051;50.820;4.884;2023-03-19T15:11:21;25.73;;;23.83;;
15905;SDS011;8051;50.820;4.884;2023-03-19T15:14:09;28.10;;;25.63;;
15905;SDS011;8051;50.820;4.884;2023-03-19T15:16:51;25.73;;;23.83;;